Pagina principale
METAR-TAF:

METAR-TAF

Aeroporti :

Gibilterra, Gibilterra

Aeroporto di Gibilterra

latitudine: 36-09N, longitudine: 005-21W, altezza: 5 m

Osservazione

Il bollettino è stato emesso 1 ora e 3 minuti fa, alle 03:50 UTC
Vento 9 kt da ovest/sud-ovest
Temperature 12°C
Umidità 76%
Pressione 1020 hPa
Visibilità 10 km o più

METAR: LXGB 180350Z AUTO 25009KT 9999 // NCD 12/08 Q1020

Ora: 05:53 (04:53 UTC)

Previsione

Il bollettino è stato emesso 15 ore e 38 minuti fa, alle 13:15 UTC
Previsione valida dal 17 alle 15 UTC al 17 alle 24 UTC
Vento 14 kt da ovest
Visibilità 10 km o più
Poco nuvoloso ad un'altezza di 3000 ft
Probabilità 30% :
Temporaneamente
dal 17 alle 15 UTC al 17 alle 18 UTC
Vento 16 kt da ovest con raffiche fino a 26 kt

TAF: LXGB 171315Z 1715/1724 27014KT 9999 FEW030 PROB30 TEMPO 1715/1718 28016G26KT

Osservazioni e previsioni meteorologiche di più di 4000 aeroporti (messaggi METAR e TAF).

Le stazioni disponibili sono rappresentate dai dischi gialli e rossi sulla carta.

Puntare il mouse per vedere il nome della stazione.

Clicca sopra per visualizzare le osservazioni e previsioni meteorologiche.

Per cambiare la mappa : fare clic sui pulsanti verdi con una croce nera per ingrandire, il pulsante verde con un trattino per diminuire, o sulla freccia verde per le mappe adiacenti.


METAR-TAF: